createdAt,value
2022-11-28T03:59:17.371Z,17.99
2022-11-28T04:00:17.467Z,18.00
2022-11-28T04:01:17.664Z,18.00
2022-11-28T04:02:17.779Z,18.03
2022-11-28T04:03:17.981Z,18.04
2022-11-28T04:04:18.077Z,18.07
2022-11-28T04:05:18.166Z,18.09
2022-11-28T04:06:18.295Z,18.13
2022-11-28T04:07:18.473Z,18.15
2022-11-28T04:08:18.525Z,18.17
2022-11-28T04:09:18.728Z,18.21
2022-11-28T04:10:18.806Z,18.24
2022-11-28T04:11:18.931Z,18.27
2022-11-28T04:12:19.026Z,18.27
2022-11-28T04:13:19.114Z,18.31
2022-11-28T04:14:19.304Z,18.31
2022-11-28T04:15:19.390Z,18.33
2022-11-28T04:16:19.603Z,18.36
2022-11-28T04:17:19.687Z,18.34
2022-11-28T04:18:19.814Z,18.37
2022-11-28T04:19:19.976Z,18.39
2022-11-28T04:20:20.122Z,18.39
2022-11-28T04:21:20.268Z,18.40
2022-11-28T04:22:20.413Z,18.40
2022-11-28T04:23:20.514Z,18.42
2022-11-28T04:24:20.689Z,18.42
2022-11-28T04:25:20.779Z,18.42
2022-11-28T04:26:21.046Z,18.43
2022-11-28T04:27:21.055Z,18.44
2022-11-28T04:28:21.225Z,18.44
2022-11-28T04:29:21.302Z,18.46
2022-11-28T04:30:21.498Z,18.46
2022-11-28T04:31:21.668Z,18.46
2022-11-28T04:32:21.682Z,18.49
2022-11-28T04:33:21.839Z,18.47
2022-11-28T04:34:22.012Z,18.47
2022-11-28T04:35:22.152Z,18.47
2022-11-28T04:36:22.261Z,18.47
2022-11-28T04:37:22.410Z,18.46
2022-11-28T04:38:22.551Z,18.47
2022-11-28T04:39:22.692Z,18.47
2022-11-28T04:40:22.841Z,18.49
2022-11-28T04:41:22.972Z,18.46
2022-11-28T04:42:23.120Z,18.47
2022-11-28T04:43:23.250Z,18.46
2022-11-28T04:44:23.404Z,18.49
2022-11-28T04:45:23.554Z,18.49
2022-11-28T04:46:23.765Z,18.49
2022-11-28T04:47:23.789Z,18.49
2022-11-28T04:48:23.957Z,18.49
2022-11-28T04:49:24.072Z,18.49
2022-11-28T04:50:24.199Z,18.47
2022-11-28T04:51:24.338Z,18.49
2022-11-28T04:52:24.500Z,18.47
2022-11-28T04:53:24.588Z,18.49
2022-11-28T04:54:24.739Z,18.49
2022-11-28T04:55:24.880Z,18.49
2022-11-28T04:56:25.052Z,18.49
2022-11-28T04:57:25.159Z,18.50
2022-11-28T04:58:25.327Z,18.49
2022-11-28T04:59:25.460Z,18.50
2022-11-28T05:00:25.618Z,18.50
2022-11-28T05:01:25.848Z,18.50
2022-11-28T05:02:25.966Z,18.49
2022-11-28T05:03:25.987Z,18.49
2022-11-28T05:04:26.121Z,18.49
2022-11-28T05:05:26.283Z,18.49
2022-11-28T05:06:26.429Z,18.50
2022-11-28T05:07:26.631Z,18.50
2022-11-28T05:08:26.728Z,18.50
2022-11-28T05:09:26.871Z,18.50
2022-11-28T05:10:27.016Z,18.50
2022-11-28T05:11:27.117Z,18.52
2022-11-28T05:12:27.267Z,18.52
2022-11-28T05:13:27.397Z,18.50
2022-11-28T05:14:27.598Z,18.52
2022-11-28T05:15:27.694Z,18.52
2022-11-28T05:16:27.879Z,18.50
2022-11-28T05:17:27.986Z,18.52
2022-11-28T05:18:28.126Z,18.50
2022-11-28T05:19:28.275Z,18.52
2022-11-28T05:20:28.417Z,18.54
2022-11-28T05:21:28.584Z,18.54
2022-11-28T05:22:28.675Z,18.52
2022-11-28T05:23:28.825Z,18.52
2022-11-28T05:24:42.354Z,18.52
2022-11-28T05:25:30.078Z,18.52
2022-11-28T05:26:29.246Z,18.50
2022-11-28T05:27:29.393Z,18.50
2022-11-28T05:28:29.558Z,18.49
2022-11-28T05:29:29.696Z,18.49
2022-11-28T05:30:29.842Z,18.50
2022-11-28T05:31:30.023Z,18.52
2022-11-28T05:32:30.123Z,18.50
2022-11-28T05:33:30.266Z,18.52
2022-11-28T05:34:30.415Z,18.50
2022-11-28T05:35:30.562Z,18.52
2022-11-28T05:36:30.725Z,18.50
2022-11-28T05:37:30.845Z,18.52
2022-11-28T05:38:30.912Z,18.50
2022-11-28T05:39:31.042Z,18.50
2022-11-28T05:40:31.177Z,18.52
2022-11-28T05:41:31.331Z,18.52
2022-11-28T05:42:31.494Z,18.52
2022-11-28T05:43:31.641Z,18.50
2022-11-28T05:44:31.784Z,18.50
2022-11-28T05:45:31.953Z,18.52
2022-11-28T05:46:32.070Z,18.52
2022-11-28T05:47:32.200Z,18.54
2022-11-28T05:48:32.331Z,18.54
2022-11-28T05:49:32.480Z,18.54
2022-11-28T05:50:35.767Z,18.52
2022-11-28T05:51:34.718Z,18.54
2022-11-28T05:52:32.921Z,18.55
2022-11-28T05:53:33.070Z,18.54
2022-11-28T05:54:33.200Z,18.55
2022-11-28T05:55:33.330Z,18.57
2022-11-28T05:56:39.440Z,18.55
2022-11-28T05:57:34.599Z,18.55
2022-11-28T05:58:33.812Z,18.57
2022-11-28T05:59:33.883Z,18.55
2022-11-28T06:00:34.019Z,18.54
2022-11-28T06:01:34.169Z,18.57
2022-11-28T06:02:34.345Z,18.57
2022-11-28T06:03:34.450Z,18.57
2022-11-28T06:04:34.663Z,18.55
2022-11-28T06:05:42.780Z,18.57
2022-11-28T06:06:36.827Z,18.57
2022-11-28T06:07:34.996Z,18.55
2022-11-28T06:08:35.077Z,18.58
2022-11-28T06:09:36.188Z,18.57
2022-11-28T06:10:35.379Z,18.57
2022-11-28T06:11:35.542Z,18.58
2022-11-28T06:12:35.634Z,18.57
2022-11-28T06:13:35.759Z,18.57
2022-11-28T06:14:36.839Z,18.58
2022-11-28T06:15:38.219Z,18.57
2022-11-28T06:16:36.236Z,18.57
2022-11-28T06:17:36.355Z,18.55
2022-11-28T06:18:36.499Z,18.57
2022-11-28T06:19:36.628Z,18.55
2022-11-28T06:20:36.783Z,18.54
2022-11-28T06:21:36.945Z,18.55
2022-11-28T06:22:37.026Z,18.55
2022-11-28T06:23:37.189Z,18.57
2022-11-28T06:24:37.265Z,18.58
2022-11-28T06:25:37.385Z,18.57
2022-11-28T06:26:37.567Z,18.57
2022-11-28T06:27:37.665Z,18.55
2022-11-28T06:28:37.825Z,18.57
2022-11-28T06:29:37.973Z,18.58
2022-11-28T06:30:38.112Z,18.57
2022-11-28T06:31:39.221Z,18.55
2022-11-28T06:32:38.393Z,18.57
2022-11-28T06:33:38.581Z,18.58
2022-11-28T06:34:38.694Z,18.57
2022-11-28T06:35:38.774Z,18.55
2022-11-28T06:36:38.999Z,18.58
2022-11-28T06:37:39.054Z,18.55
2022-11-28T06:38:39.314Z,18.57
2022-11-28T06:39:39.322Z,18.57
2022-11-28T06:40:42.127Z,18.57
2022-11-28T06:41:39.585Z,18.55
2022-11-28T06:42:39.974Z,18.55
2022-11-28T06:43:39.993Z,18.55
2022-11-28T06:44:40.310Z,18.57
2022-11-28T06:45:40.272Z,18.57
2022-11-28T06:46:42.229Z,18.55
2022-11-28T06:47:40.396Z,18.55
2022-11-28T06:48:40.514Z,18.55
2022-11-28T06:49:41.036Z,18.57
2022-11-28T06:50:40.838Z,18.58
2022-11-28T06:51:41.564Z,18.57
2022-11-28T06:52:41.533Z,18.57
2022-11-28T06:53:41.271Z,18.57
2022-11-28T06:54:42.439Z,18.57
2022-11-28T06:55:41.537Z,18.57
2022-11-28T06:56:41.720Z,18.57
2022-11-28T06:57:41.797Z,18.55
2022-11-28T06:58:42.169Z,18.57
2022-11-28T06:59:43.218Z,18.58
2022-11-28T07:00:42.328Z,18.58
2022-11-28T07:01:42.467Z,18.58
2022-11-28T07:02:42.666Z,18.57
2022-11-28T07:03:44.343Z,18.57
2022-11-28T07:04:46.461Z,18.55
2022-11-28T07:05:42.955Z,18.57
2022-11-28T07:06:44.097Z,18.57
2022-11-28T07:07:53.909Z,18.55
2022-11-28T07:08:44.569Z,18.55
2022-11-28T07:09:44.700Z,18.58
2022-11-28T07:10:43.623Z,18.58
2022-11-28T07:11:43.687Z,18.57
2022-11-28T07:12:44.803Z,18.57
2022-11-28T07:13:44.980Z,18.55
2022-11-28T07:14:44.141Z,18.57
2022-11-28T07:15:46.013Z,18.57
2022-11-28T07:16:44.530Z,18.58
2022-11-28T07:17:44.558Z,18.57
2022-11-28T07:18:44.727Z,18.58
2022-11-28T07:19:50.536Z,18.55
2022-11-28T07:20:50.797Z,18.57
2022-11-28T07:21:49.159Z,18.55
2022-11-28T07:22:45.307Z,18.57
2022-11-28T07:23:46.366Z,18.55
2022-11-28T07:24:45.556Z,18.55
2022-11-28T07:25:45.668Z,18.57
2022-11-28T07:26:47.721Z,18.57
2022-11-28T07:27:46.870Z,18.57
2022-11-28T07:28:46.081Z,18.57
2022-11-28T07:29:46.191Z,18.55
2022-11-28T07:30:46.335Z,18.57
2022-11-28T07:31:46.519Z,18.54
2022-11-28T07:32:46.604Z,18.55
2022-11-28T07:33:46.793Z,18.57
2022-11-28T07:34:50.144Z,18.55
2022-11-28T07:35:47.008Z,18.55
2022-11-28T07:36:47.118Z,18.55
2022-11-28T07:37:47.291Z,18.55
2022-11-28T07:38:47.416Z,18.55
2022-11-28T07:39:47.546Z,18.55
2022-11-28T07:40:47.666Z,18.55
2022-11-28T07:41:47.774Z,18.55
2022-11-28T07:42:47.901Z,18.55
2022-11-28T07:43:51.555Z,18.55
2022-11-28T07:44:49.236Z,18.54
2022-11-28T07:46:00.616Z,18.54
2022-11-28T07:46:49.507Z,18.54
2022-11-28T07:47:49.450Z,18.55
2022-11-28T07:48:49.483Z,18.55
2022-11-28T07:49:48.883Z,18.55
2022-11-28T07:50:48.987Z,18.55
2022-11-28T07:51:50.102Z,18.55
2022-11-28T07:52:49.251Z,18.54
2022-11-28T07:53:50.352Z,18.55
2022-11-28T07:54:50.545Z,18.57
2022-11-28T07:55:50.627Z,18.57
2022-11-28T07:57:12.675Z,18.55
2022-11-28T07:57:52.181Z,18.57
2022-11-28T07:58:50.058Z,18.57
2022-11-28T07:59:50.163Z,18.57
2022-11-28T08:00:50.386Z,18.58
2022-11-28T08:01:50.475Z,18.58
2022-11-28T08:02:51.531Z,18.57
2022-11-28T08:03:50.831Z,18.57
2022-11-28T08:04:55.082Z,18.57
2022-11-28T08:05:50.973Z,18.58
2022-11-28T08:06:51.094Z,18.58
2022-11-28T08:07:52.196Z,18.57
2022-11-28T08:08:51.450Z,18.55
2022-11-28T08:09:52.520Z,18.57
2022-11-28T08:10:51.750Z,18.58
2022-11-28T08:11:52.841Z,18.57
2022-11-28T08:12:52.090Z,18.58
2022-11-28T08:13:54.976Z,18.57
2022-11-28T08:14:55.186Z,18.58
2022-11-28T08:15:53.273Z,18.58
2022-11-28T08:16:54.442Z,18.57
2022-11-28T08:17:52.591Z,18.57
2022-11-28T08:18:53.740Z,18.55
2022-11-28T08:19:52.910Z,18.57
2022-11-28T08:20:54.011Z,18.55
2022-11-28T08:21:53.128Z,18.58
2022-11-28T08:22:53.343Z,18.59
2022-11-28T08:23:53.356Z,18.58
2022-11-28T08:24:53.905Z,18.58
2022-11-28T08:25:53.789Z,18.57
2022-11-28T08:26:54.260Z,18.58
2022-11-28T08:27:55.768Z,18.58
2022-11-28T08:28:56.575Z,18.57
2022-11-28T08:29:55.172Z,18.58
2022-11-28T08:30:54.946Z,18.58
2022-11-28T08:31:55.774Z,18.57
2022-11-28T08:34:16.630Z,18.55
2022-11-28T08:35:20.772Z,18.57
2022-11-28T08:36:17.738Z,18.57
2022-11-28T08:37:19.794Z,18.57
2022-11-28T08:38:14.743Z,18.57
2022-11-28T08:39:23.894Z,18.57
2022-11-28T08:40:14.566Z,18.57
2022-11-28T08:41:13.548Z,18.57
2022-11-28T08:42:14.078Z,18.55
2022-11-28T08:43:14.518Z,18.57
2022-11-28T08:44:18.335Z,18.57
2022-11-28T08:45:15.184Z,18.57
2022-11-28T08:46:14.296Z,18.57
2022-11-28T08:47:14.731Z,18.57
2022-11-28T08:48:19.564Z,18.57
2022-11-28T08:49:14.531Z,18.57
2022-11-28T08:50:14.943Z,18.57
2022-11-28T08:51:14.858Z,18.57
2022-11-28T08:52:14.916Z,18.57
2022-11-28T08:53:21.608Z,18.55
2022-11-28T08:54:26.688Z,18.55
2022-11-28T08:55:48.879Z,18.57
2022-11-28T08:56:31.832Z,18.58
2022-11-28T08:57:18.245Z,18.55
2022-11-28T08:58:16.780Z,18.57
2022-11-28T08:59:17.021Z,18.57
2022-11-28T09:00:19.381Z,18.57
2022-11-28T09:01:17.300Z,18.57
2022-11-28T09:02:16.419Z,18.55
2022-11-28T09:03:16.415Z,18.57
2022-11-28T09:04:17.670Z,18.57
2022-11-28T09:05:16.837Z,18.55
2022-11-28T09:06:17.055Z,18.57
2022-11-28T09:07:18.173Z,18.57
2022-11-28T09:08:18.155Z,18.57
2022-11-28T09:09:18.086Z,18.57
2022-11-28T09:10:17.514Z,18.57
2022-11-28T09:11:17.576Z,18.58
2022-11-28T09:12:17.755Z,18.57
2022-11-28T09:13:17.782Z,18.55
2022-11-28T09:14:18.935Z,18.57
2022-11-28T09:15:18.076Z,18.58
2022-11-28T09:16:18.325Z,18.58
2022-11-28T09:17:18.372Z,18.57
2022-11-28T09:18:19.393Z,18.58
2022-11-28T09:19:18.682Z,18.57
2022-11-28T09:20:18.738Z,18.58
2022-11-28T09:21:19.563Z,18.57
2022-11-28T09:22:18.931Z,18.58
2022-11-28T09:23:19.005Z,18.57
2022-11-28T09:24:21.149Z,18.58
2022-11-28T09:25:19.315Z,18.57
2022-11-28T09:26:19.440Z,18.58
2022-11-28T09:27:19.561Z,18.58
2022-11-28T09:28:19.610Z,18.61
2022-11-28T09:29:19.772Z,18.61
2022-11-28T09:30:20.881Z,18.59
2022-11-28T09:31:22.082Z,18.59
2022-11-28T09:32:20.451Z,18.61
2022-11-28T09:33:20.901Z,18.59
2022-11-28T09:34:20.411Z,18.61
2022-11-28T09:35:20.960Z,18.61
2022-11-28T09:36:20.640Z,18.61
2022-11-28T09:37:20.792Z,18.61
2022-11-28T09:38:20.891Z,18.59
2022-11-28T09:39:20.982Z,18.61
2022-11-28T09:40:25.103Z,18.61
2022-11-28T09:41:25.232Z,18.59
2022-11-28T09:42:21.442Z,18.61
2022-11-28T09:43:23.640Z,18.61
2022-11-28T09:44:28.186Z,18.61
2022-11-28T09:45:21.864Z,18.62
2022-11-28T09:46:22.123Z,18.61
2022-11-28T09:47:25.289Z,18.62
2022-11-28T09:48:22.272Z,18.62
2022-11-28T09:49:26.483Z,18.61
2022-11-28T09:50:22.554Z,18.61
2022-11-28T09:51:22.871Z,18.62
2022-11-28T09:52:22.925Z,18.61
2022-11-28T09:53:24.798Z,18.61
2022-11-28T09:54:25.969Z,18.62
2022-11-28T09:55:23.308Z,18.62
2022-11-28T09:56:23.369Z,18.61
2022-11-28T09:57:25.991Z,18.61
2022-11-28T09:58:26.386Z,18.61
2022-11-28T09:59:23.727Z,18.62
2022-11-28T10:00:23.827Z,18.62
2022-11-28T10:01:26.619Z,18.62
2022-11-28T10:02:24.097Z,18.61
2022-11-28T10:13:41.365Z,18.44
2022-11-28T10:14:33.771Z,18.42
2022-11-28T10:15:31.987Z,18.40
2022-11-28T10:16:32.141Z,18.40
2022-11-28T10:17:32.248Z,18.42
2022-11-28T10:18:33.213Z,18.42
2022-11-28T10:19:53.262Z,18.44
2022-11-28T10:20:33.582Z,18.46
2022-11-28T10:21:32.722Z,18.47
2022-11-28T10:22:34.309Z,18.49
2022-11-28T10:23:35.594Z,18.50
2022-11-28T10:24:34.859Z,18.52
2022-11-28T10:25:33.580Z,18.52
2022-11-28T10:26:35.967Z,18.54
2022-11-28T10:27:38.768Z,18.57
2022-11-28T10:28:40.751Z,18.57
2022-11-28T10:29:35.849Z,18.58
2022-11-28T10:30:34.352Z,18.59
2022-11-28T10:31:34.331Z,18.59
2022-11-28T10:32:34.200Z,18.61
2022-11-28T10:33:34.924Z,18.59
2022-11-28T10:34:37.992Z,18.61
2022-11-28T10:35:42.883Z,18.61
2022-11-28T10:36:36.478Z,18.62
2022-11-28T10:37:34.890Z,18.62
2022-11-28T10:38:35.235Z,18.64
2022-11-28T10:39:35.557Z,18.64
2022-11-28T10:40:35.837Z,18.62
2022-11-28T10:41:38.219Z,18.64
2022-11-28T10:42:37.532Z,18.64
2022-11-28T10:43:35.726Z,18.64
2022-11-28T10:44:36.830Z,18.64
2022-11-28T10:45:39.656Z,18.65
2022-11-28T10:46:39.608Z,18.65
2022-11-28T10:47:37.188Z,18.65
2022-11-28T10:48:40.847Z,18.64
2022-11-28T10:49:41.892Z,18.64
2022-11-28T10:50:39.887Z,18.67
2022-11-28T10:51:44.186Z,18.67
2022-11-28T10:52:37.002Z,18.68
2022-11-28T10:53:37.105Z,18.65
2022-11-28T10:54:42.527Z,18.67
2022-11-28T10:55:38.674Z,18.67
2022-11-28T10:56:37.465Z,18.67
2022-11-28T10:57:40.881Z,18.67
2022-11-28T10:58:40.267Z,18.67
2022-11-28T10:59:37.858Z,18.68
2022-11-28T11:00:38.029Z,18.68
2022-11-28T11:01:38.903Z,18.68
2022-11-28T11:02:38.160Z,18.68
2022-11-28T11:03:39.340Z,18.68
2022-11-28T11:04:38.488Z,18.70
2022-11-28T11:05:38.815Z,18.72
2022-11-28T11:06:47.621Z,18.70
2022-11-28T11:07:39.922Z,18.70
2022-11-28T11:08:41.127Z,18.70
2022-11-28T11:09:39.131Z,18.70
2022-11-28T11:10:39.422Z,18.70
2022-11-28T11:11:40.374Z,18.72
2022-11-28T11:12:39.434Z,18.68
2022-11-28T11:13:40.635Z,18.70
2022-11-28T11:14:39.703Z,18.68
2022-11-28T11:15:47.721Z,18.72
2022-11-28T11:17:13.537Z,18.68
2022-11-28T11:17:51.565Z,18.70
2022-11-28T11:18:51.184Z,18.70
2022-11-28T11:19:41.789Z,18.70
2022-11-28T11:20:45.228Z,18.70
2022-11-28T11:21:40.689Z,18.70
2022-11-28T11:22:40.804Z,18.68
2022-11-28T11:23:46.178Z,18.72
2022-11-28T11:24:43.001Z,18.72
2022-11-28T11:25:41.522Z,18.73
2022-11-28T11:26:41.300Z,18.72
2022-11-28T11:27:41.560Z,18.72
2022-11-28T11:28:45.231Z,18.72
2022-11-28T11:29:44.714Z,18.72
2022-11-28T11:30:42.857Z,18.72
2022-11-28T11:31:44.544Z,18.73
2022-11-28T11:32:46.296Z,18.73
2022-11-28T11:33:43.262Z,18.74
2022-11-28T11:34:43.127Z,18.74
2022-11-28T11:35:43.280Z,18.73
2022-11-28T11:36:43.131Z,18.74
2022-11-28T11:37:43.079Z,18.76
2022-11-28T11:38:43.233Z,18.74
2022-11-28T11:39:44.208Z,18.74
2022-11-28T11:40:43.230Z,18.73
2022-11-28T11:41:44.376Z,18.74
2022-11-28T11:42:45.441Z,18.76
2022-11-28T11:43:43.667Z,18.77
2022-11-28T11:44:43.756Z,18.76
2022-11-28T11:45:48.473Z,18.76
2022-11-28T11:46:45.110Z,18.76
2022-11-28T11:47:46.181Z,18.77
2022-11-28T11:48:47.088Z,18.74
2022-11-28T11:49:44.766Z,18.77
2022-11-28T11:50:44.799Z,18.79
2022-11-28T11:52:06.599Z,18.76
2022-11-28T11:52:44.877Z,18.79
2022-11-28T11:53:47.289Z,18.77
2022-11-28T11:54:46.889Z,18.77
2022-11-28T11:55:51.018Z,18.77
2022-11-28T11:56:45.347Z,18.79
2022-11-28T11:57:46.407Z,18.79
2022-11-28T11:58:48.939Z,18.77
2022-11-28T11:59:45.858Z,18.77
2022-11-28T12:00:45.849Z,18.77
2022-11-28T12:01:46.919Z,18.79
2022-11-28T12:02:48.243Z,18.77
2022-11-28T12:03:46.293Z,18.76
2022-11-28T12:04:51.103Z,18.77
2022-11-28T12:06:12.607Z,18.79
2022-11-28T12:06:50.326Z,18.79
2022-11-28T12:07:47.073Z,18.77
2022-11-28T12:08:47.234Z,18.79
2022-11-28T12:09:47.980Z,18.79
2022-11-28T12:10:47.262Z,18.77
2022-11-28T12:11:47.523Z,18.79
2022-11-28T12:12:48.237Z,18.79
2022-11-28T12:13:47.711Z,18.77
2022-11-28T12:14:49.945Z,18.79
2022-11-28T12:15:49.461Z,18.79
2022-11-28T12:17:40.467Z,18.79
2022-11-28T12:18:51.840Z,18.79
2022-11-28T12:19:48.957Z,18.79
2022-11-28T12:20:51.086Z,18.77
2022-11-28T12:21:48.845Z,18.79
2022-11-28T12:22:49.407Z,18.79
2022-11-28T12:23:49.097Z,18.77
2022-11-28T12:24:50.332Z,18.77
2022-11-28T12:25:49.323Z,18.79
2022-11-28T12:26:51.283Z,18.79
2022-11-28T12:27:50.324Z,18.77
2022-11-28T12:28:49.829Z,18.79
2022-11-28T12:29:59.873Z,18.79
2022-11-28T12:30:49.892Z,18.79
2022-11-28T12:31:49.964Z,18.79
2022-11-28T12:32:50.073Z,18.79
2022-11-28T12:33:50.211Z,18.80
2022-11-28T12:34:50.302Z,18.79
2022-11-28T12:35:51.359Z,18.79
2022-11-28T12:36:50.598Z,18.79
2022-11-28T12:38:51.823Z,18.79
2022-11-28T12:39:51.002Z,18.79
2022-11-28T12:40:51.074Z,18.79
2022-11-28T12:41:51.196Z,18.79
2022-11-28T12:42:51.275Z,18.80
2022-11-28T12:43:51.443Z,18.80
2022-11-28T12:44:51.601Z,18.80
2022-11-28T12:45:51.778Z,18.79
2022-11-28T12:46:51.873Z,18.79
2022-11-28T12:47:51.993Z,18.79
2022-11-28T12:48:53.561Z,18.80
2022-11-28T12:49:52.313Z,18.80
2022-11-28T12:50:52.341Z,18.79
2022-11-28T12:51:52.553Z,18.80
2022-11-28T12:52:52.669Z,18.79
2022-11-28T12:53:52.772Z,18.80
2022-11-28T12:54:52.882Z,18.80
2022-11-28T12:55:52.980Z,18.82
2022-11-28T12:56:53.170Z,18.80
2022-11-28T12:57:53.225Z,18.80
2022-11-28T12:58:53.391Z,18.80
2022-11-28T12:59:53.557Z,18.80
2022-11-28T13:00:53.654Z,18.80
2022-11-28T13:01:53.919Z,18.80
2022-11-28T13:02:53.996Z,18.80
2022-11-28T13:03:55.023Z,18.80
2022-11-28T13:04:54.225Z,18.80
2022-11-28T13:05:54.369Z,18.79
2022-11-28T13:06:54.485Z,18.80
2022-11-28T13:07:54.632Z,18.80
2022-11-28T13:08:54.761Z,18.80
2022-11-28T13:09:54.859Z,18.79
2022-11-28T13:10:55.204Z,18.80
2022-11-28T13:11:55.153Z,18.80
2022-11-28T13:12:55.219Z,18.82
2022-11-28T13:13:55.377Z,18.80
2022-11-28T13:14:55.547Z,18.80
2022-11-28T13:15:55.717Z,18.80
2022-11-28T13:16:55.758Z,18.82
2022-11-28T13:17:55.956Z,18.80
2022-11-28T13:18:56.312Z,18.79
2022-11-28T13:19:56.250Z,18.80
2022-11-28T13:20:56.398Z,18.80
2022-11-28T13:21:56.546Z,18.80
2022-11-28T13:22:56.652Z,18.80
2022-11-28T13:23:58.865Z,18.80
2022-11-28T13:24:57.986Z,18.80
2022-11-28T13:25:57.067Z,18.80
2022-11-28T13:26:58.176Z,18.82
2022-11-28T13:27:57.388Z,18.80
2022-11-28T13:28:57.495Z,18.80
2022-11-28T13:29:57.595Z,18.82
2022-11-28T13:30:57.806Z,18.79
2022-11-28T13:32:01.954Z,18.80
2022-11-28T13:32:58.006Z,18.79
2022-11-28T13:33:58.116Z,18.82
2022-11-28T13:34:58.226Z,18.82
2022-11-28T13:35:58.370Z,18.82
2022-11-28T13:39:11.123Z,18.80
2022-11-28T13:39:59.888Z,18.79
2022-11-28T13:40:59.025Z,18.79
2022-11-28T13:42:36.049Z,18.79
2022-11-28T13:43:06.529Z,18.82
2022-11-28T13:44:00.423Z,18.82
2022-11-28T13:44:59.633Z,18.82
2022-11-28T13:45:59.785Z,18.80
2022-11-28T13:46:59.916Z,18.80
2022-11-28T13:48:01.156Z,18.80
2022-11-28T13:49:19.637Z,18.82
2022-11-28T13:50:02.248Z,18.80
2022-11-28T13:51:00.360Z,18.80
2022-11-28T13:52:00.515Z,18.80
2022-11-28T13:53:00.681Z,18.80
2022-11-28T13:54:00.860Z,18.80
2022-11-28T13:55:00.954Z,18.82
2022-11-28T13:56:01.037Z,18.80
2022-11-28T13:57:01.119Z,18.80
2022-11-28T13:58:01.261Z,18.80
2022-11-28T13:59:01.430Z,18.82
2022-11-28T14:00:01.560Z,18.80
2022-11-28T14:01:01.681Z,18.80
2022-11-28T14:02:01.852Z,18.82
2022-11-28T14:03:02.029Z,18.80
2022-11-28T14:04:02.040Z,18.80
2022-11-28T14:05:02.242Z,18.80
2022-11-28T14:06:02.370Z,18.82
2022-11-28T14:07:02.519Z,18.82
2022-11-28T14:08:02.804Z,18.82
2022-11-28T14:09:02.808Z,18.79
2022-11-28T14:10:02.945Z,18.82
2022-11-28T14:11:03.083Z,18.83
2022-11-28T14:12:03.174Z,18.82
2022-11-28T14:13:03.308Z,18.79
2022-11-28T14:14:04.027Z,18.80
2022-11-28T14:15:03.581Z,18.82
2022-11-28T14:16:03.733Z,18.82
2022-11-28T14:17:03.831Z,18.83
2022-11-28T14:18:18.960Z,18.82
2022-11-28T14:19:05.148Z,18.82
2022-11-28T14:20:04.290Z,18.82
2022-11-28T14:21:04.447Z,18.83
2022-11-28T14:22:04.576Z,18.82
2022-11-28T14:23:04.684Z,18.80
2022-11-28T14:24:04.828Z,18.80
2022-11-28T14:25:04.999Z,18.82
2022-11-28T14:26:05.088Z,18.82
2022-11-28T14:27:05.257Z,18.82
2022-11-28T14:28:05.356Z,18.82
2022-11-28T14:29:05.450Z,18.80
2022-11-28T14:30:05.734Z,18.80
2022-11-28T14:31:05.835Z,18.82
2022-11-28T14:33:07.026Z,18.80
2022-11-28T14:34:06.176Z,18.80
2022-11-28T14:35:06.286Z,18.80
2022-11-28T14:36:06.456Z,18.80
2022-11-28T14:37:06.627Z,18.80
2022-11-28T14:38:06.727Z,18.82
2022-11-28T14:39:06.882Z,18.80
2022-11-28T14:40:07.049Z,18.80
2022-11-28T14:41:07.165Z,18.79
2022-11-28T14:42:08.232Z,18.82
2022-11-28T14:43:07.426Z,18.80
2022-11-28T14:44:07.645Z,18.82
2022-11-28T14:45:08.692Z,18.82
2022-11-28T14:46:07.852Z,18.80
2022-11-28T14:47:07.933Z,18.82
2022-11-28T14:48:08.054Z,18.82
2022-11-28T14:49:08.233Z,18.80
2022-11-28T14:50:08.344Z,18.80
2022-11-28T14:51:08.513Z,18.79
2022-11-28T14:53:09.781Z,18.82
2022-11-28T14:54:08.927Z,18.80
2022-11-28T14:55:09.082Z,18.80
2022-11-28T14:56:09.193Z,18.80
2022-11-28T14:57:09.371Z,18.82
2022-11-28T14:58:09.469Z,18.82
2022-11-28T14:59:09.614Z,18.82
2022-11-28T15:00:09.724Z,18.80
2022-11-28T15:01:09.822Z,18.80
2022-11-28T15:02:10.025Z,18.82
2022-11-28T15:03:10.182Z,18.82
2022-11-28T15:04:10.311Z,18.82
2022-11-28T15:05:10.422Z,18.82
2022-11-28T15:06:10.613Z,18.80
2022-11-28T15:07:10.759Z,18.82
2022-11-28T15:08:10.872Z,18.82
2022-11-28T15:09:11.055Z,18.82
2022-11-28T15:10:11.142Z,18.80
2022-11-28T15:11:11.239Z,18.80
2022-11-28T15:12:11.347Z,18.82
2022-11-28T15:13:11.540Z,18.82
2022-11-28T15:14:11.599Z,18.82
2022-11-28T15:15:11.740Z,18.80
2022-11-28T15:16:11.944Z,18.80
2022-11-28T15:17:12.073Z,18.80
2022-11-28T15:18:12.210Z,18.80
2022-11-28T15:19:12.400Z,18.80
2022-11-28T15:20:12.498Z,18.80
2022-11-28T15:21:12.619Z,18.80
2022-11-28T15:22:12.711Z,18.82
2022-11-28T15:23:12.860Z,18.82
2022-11-28T15:24:13.009Z,18.83
2022-11-28T15:25:13.187Z,18.79
2022-11-28T15:26:13.277Z,18.80
2022-11-28T15:27:13.427Z,18.80
2022-11-28T15:28:13.582Z,18.80
2022-11-28T15:29:13.796Z,18.80
2022-11-28T15:30:13.927Z,18.83
2022-11-28T15:31:14.111Z,18.82
2022-11-28T15:32:14.210Z,18.82
2022-11-28T15:33:14.299Z,18.80
2022-11-28T15:34:14.467Z,18.80
2022-11-28T15:35:14.668Z,18.79
2022-11-28T15:36:14.727Z,18.80
2022-11-28T15:37:14.875Z,18.82
2022-11-28T15:38:15.026Z,18.80
2022-11-28T15:39:15.167Z,18.82
2022-11-28T15:40:15.307Z,18.82
2022-11-28T15:41:15.427Z,18.82
2022-11-28T15:42:15.576Z,18.80
2022-11-28T15:43:15.726Z,18.83
2022-11-28T15:44:15.849Z,18.82
2022-11-28T15:45:15.984Z,18.80
2022-11-28T15:46:16.152Z,18.80
2022-11-28T15:47:16.263Z,18.82
2022-11-28T15:48:16.414Z,18.82
2022-11-28T15:49:16.525Z,18.80
2022-11-28T15:50:16.699Z,18.79
2022-11-28T15:51:16.834Z,18.82
2022-11-28T15:52:16.974Z,18.82
2022-11-28T15:53:17.134Z,18.82
2022-11-28T15:54:17.273Z,18.80
2022-11-28T15:55:17.421Z,18.80
2022-11-28T15:56:17.525Z,18.80
2022-11-28T15:57:17.663Z,18.80
2022-11-28T15:58:17.817Z,18.79
2022-11-28T15:59:17.955Z,18.79
2022-11-28T16:00:18.125Z,18.80
2022-11-28T16:01:18.266Z,18.79
2022-11-28T16:12:42.481Z,18.55
2022-11-28T16:13:42.652Z,18.50
2022-11-28T16:14:43.028Z,18.50
2022-11-28T16:15:46.972Z,18.52
2022-11-28T16:16:44.032Z,18.50
2022-11-28T16:17:43.136Z,18.52
2022-11-28T16:18:43.271Z,18.54
2022-11-28T16:19:43.415Z,18.55
2022-11-28T16:20:43.554Z,18.58
2022-11-28T16:21:43.706Z,18.59
2022-11-28T16:22:43.785Z,18.61
2022-11-28T16:23:43.937Z,18.62
2022-11-28T16:24:44.305Z,18.62
2022-11-28T16:25:44.187Z,18.65
2022-11-28T16:26:44.342Z,18.64
2022-11-28T16:27:44.466Z,18.67
2022-11-28T16:28:44.605Z,18.68
2022-11-28T16:29:44.985Z,18.67
2022-11-28T16:30:44.905Z,18.68
2022-11-28T16:31:45.120Z,18.70
2022-11-28T16:32:45.174Z,18.68
2022-11-28T16:33:45.324Z,18.70
2022-11-28T16:34:45.669Z,18.72
2022-11-28T16:35:45.603Z,18.70
2022-11-28T16:36:45.745Z,18.72
2022-11-28T16:37:46.835Z,18.72
2022-11-28T16:38:46.014Z,18.70
2022-11-28T16:39:46.230Z,18.72
2022-11-28T16:40:46.235Z,18.70
2022-11-28T16:41:46.434Z,18.73
2022-11-28T16:42:46.544Z,18.72
2022-11-28T16:43:46.693Z,18.72
2022-11-28T16:44:46.813Z,18.72
2022-11-28T16:45:47.028Z,18.72
2022-11-28T16:46:47.073Z,18.73
2022-11-28T16:47:47.232Z,18.72
2022-11-28T16:48:47.363Z,18.72
2022-11-28T16:49:48.444Z,18.73
2022-11-28T16:50:47.664Z,18.73
2022-11-28T16:51:47.812Z,18.73
2022-11-28T16:52:47.951Z,18.72
2022-11-28T16:53:48.092Z,18.72
2022-11-28T16:54:48.241Z,18.74
2022-11-28T16:55:48.372Z,18.72
2022-11-28T16:56:48.519Z,18.70
2022-11-28T16:57:48.648Z,18.73
2022-11-28T16:58:48.774Z,18.73
2022-11-28T16:59:48.946Z,18.73
2022-11-28T17:00:49.110Z,18.72
2022-11-28T17:01:49.265Z,18.72
2022-11-28T17:02:49.331Z,18.73
2022-11-28T17:03:49.482Z,18.73
2022-11-28T17:04:49.599Z,18.73
2022-11-28T17:05:49.739Z,18.72
2022-11-28T17:06:49.862Z,18.72
2022-11-28T17:07:50.112Z,18.72
2022-11-28T17:08:50.163Z,18.72
2022-11-28T17:09:50.329Z,18.72
2022-11-28T17:10:50.410Z,18.73
2022-11-28T17:11:50.548Z,18.72
2022-11-28T17:12:50.710Z,18.70
2022-11-28T17:13:51.732Z,18.73
2022-11-28T17:14:50.998Z,18.72
2022-11-28T17:15:51.120Z,18.72
2022-11-28T17:16:51.286Z,18.72
2022-11-28T17:17:51.397Z,18.73
2022-11-28T17:18:51.549Z,18.72
2022-11-28T17:19:51.687Z,18.72
2022-11-28T17:20:51.839Z,18.72